createdAt,value
2019-01-17T00:06:33.898Z,98911.33
2019-01-17T00:09:40.647Z,98912.25
2019-01-17T00:12:48.939Z,98900.12
2019-01-17T00:15:55.714Z,98903.41
2019-01-17T00:18:43.202Z,98906.23
2019-01-17T00:26:48.305Z,98894.16
2019-01-17T00:29:35.799Z,98891.89
2019-01-17T00:32:42.559Z,98883.68
2019-01-17T00:38:19.129Z,98874.88
2019-01-17T00:41:06.617Z,98882.25
2019-01-17T00:43:54.113Z,98880.84
2019-01-17T00:46:41.610Z,98875.17
2019-01-17T00:49:29.110Z,98875.70
2019-01-17T00:52:16.617Z,98869.59
2019-01-17T00:55:04.138Z,98868.12
2019-01-17T00:57:51.639Z,98860.27
2019-01-17T01:00:39.132Z,98863.04
2019-01-17T01:06:02.109Z,98855.53
2019-01-17T01:08:49.607Z,98853.71
2019-01-17T01:11:37.098Z,98859.59
2019-01-17T01:14:24.599Z,98848.95
2019-01-17T01:17:32.892Z,98856.20
2019-01-17T01:20:20.382Z,98856.03
2019-01-17T01:23:07.884Z,98836.34
2019-01-17T01:26:14.630Z,98840.95
2019-01-17T01:29:02.132Z,98842.27
2019-01-17T01:34:57.717Z,98843.31
2019-01-17T01:37:45.219Z,98850.78
2019-01-17T01:40:32.711Z,98849.74
2019-01-17T01:43:20.216Z,98845.59
2019-01-17T01:46:07.714Z,98856.77
2019-01-17T01:49:14.467Z,98858.55
2019-01-17T01:54:31.930Z,98858.81
2019-01-17T01:57:19.422Z,98847.52
2019-01-17T01:59:47.803Z,98863.53
2019-01-17T02:02:35.436Z,98862.09
2019-01-17T02:08:17.525Z,98865.50
2019-01-17T02:16:28.470Z,98872.20
2019-01-17T02:19:16.103Z,98856.46
2019-01-17T02:29:39.648Z,98876.78
2019-01-17T02:32:27.277Z,98885.94
2019-01-17T02:34:55.662Z,98894.39
2019-01-17T02:37:43.284Z,98891.52
2019-01-17T02:40:51.579Z,98898.16
2019-01-17T02:46:07.416Z,98896.53
2019-01-17T02:48:35.787Z,98888.69
2019-01-17T02:51:26.266Z,98892.14
2019-01-17T02:53:54.641Z,98891.80
2019-01-17T02:56:42.255Z,98892.62
2019-01-17T02:59:10.631Z,98891.58
2019-01-17T03:01:58.120Z,98893.10
2019-01-17T03:04:26.504Z,98896.55
2019-01-17T03:06:54.873Z,98888.61
2019-01-17T03:10:03.167Z,98878.19
2019-01-17T03:12:31.531Z,98879.48
2019-01-17T03:14:59.913Z,98870.41
2019-01-17T03:17:28.273Z,98871.10
2019-01-17T03:19:56.650Z,98863.20
2019-01-17T03:22:25.011Z,98866.02
2019-01-17T03:25:12.504Z,98869.89
2019-01-17T03:28:20.780Z,98868.90
2019-01-17T03:31:08.413Z,98876.14
2019-01-17T03:33:56.022Z,98880.16
2019-01-17T03:36:43.518Z,98874.21
2019-01-17T03:39:11.894Z,98884.77
2019-01-17T03:42:20.175Z,98893.24
2019-01-17T03:44:48.551Z,98886.52
2019-01-17T03:47:16.912Z,98896.08
2019-01-17T03:50:04.414Z,98887.39
2019-01-17T03:52:32.790Z,98895.63
2019-01-17T03:55:01.175Z,98897.13
2019-01-17T03:57:29.528Z,98911.00
2019-01-17T03:59:57.915Z,98909.03
2019-01-17T04:02:45.538Z,98903.22
2019-01-17T04:05:53.822Z,98906.30
2019-01-17T04:08:22.189Z,98913.41
2019-01-17T04:10:50.563Z,98911.64
2019-01-17T04:13:38.043Z,98915.12
2019-01-17T04:16:46.329Z,98924.75
2019-01-17T04:19:14.697Z,98926.35
2019-01-17T04:22:02.320Z,98917.19
2019-01-17T04:24:30.684Z,98925.87
2019-01-17T04:26:59.054Z,98909.80
2019-01-17T04:29:27.437Z,98901.05
2019-01-17T04:32:14.940Z,98908.66
2019-01-17T04:35:02.416Z,98907.33
2019-01-17T04:37:50.043Z,98916.01
2019-01-17T04:40:18.415Z,98916.13
2019-01-17T04:42:46.786Z,98919.25
2019-01-17T04:45:55.068Z,98909.44
2019-01-17T04:48:23.438Z,98907.98
2019-01-17T04:50:51.813Z,98921.95
2019-01-17T04:53:39.423Z,98914.77
2019-01-17T04:56:07.803Z,98919.69
2019-01-17T04:58:55.419Z,98926.59
2019-01-17T05:01:23.792Z,98916.92
2019-01-17T05:04:11.405Z,98904.09
2019-01-17T05:06:39.786Z,98916.69
2019-01-17T05:09:48.073Z,98917.52
2019-01-17T05:12:16.446Z,98920.94
2019-01-17T05:14:44.810Z,98915.50
2019-01-17T05:17:53.101Z,98920.43
2019-01-17T05:20:21.484Z,98919.24
2019-01-17T05:23:09.091Z,98911.42
2019-01-17T05:28:11.430Z,98916.03
2019-01-17T05:30:39.807Z,98915.94
2019-01-17T05:33:27.421Z,98922.39
2019-01-17T05:35:55.811Z,98921.63
2019-01-17T05:38:24.164Z,98917.49
2019-01-17T05:41:11.791Z,98913.56
2019-01-17T05:43:40.151Z,98913.36
2019-01-17T05:46:27.774Z,98930.24
2019-01-17T05:48:56.147Z,98929.73
2019-01-17T05:51:24.525Z,98919.18
2019-01-17T05:53:52.895Z,98934.31
2019-01-17T05:56:40.391Z,98931.57
2019-01-17T05:59:08.761Z,98925.70
2019-01-17T06:01:56.263Z,98933.71
2019-01-17T06:04:24.620Z,98934.54
2019-01-17T06:06:52.992Z,98931.94
2019-01-17T06:09:21.355Z,98930.56
2019-01-17T06:11:49.728Z,98919.00
2019-01-17T06:14:18.098Z,98914.08
2019-01-17T06:17:05.816Z,98927.00
2019-01-17T06:19:34.187Z,98921.07
2019-01-17T06:22:02.568Z,98927.53
2019-01-17T06:24:50.180Z,98933.20
2019-01-17T06:27:18.564Z,98923.10
2019-01-17T06:30:06.177Z,98919.18
2019-01-17T06:32:53.800Z,98922.71
2019-01-17T06:35:41.440Z,98934.73
2019-01-17T06:38:09.788Z,98919.10
2019-01-17T06:40:38.159Z,98926.39
2019-01-17T06:43:06.532Z,98916.38
2019-01-17T06:45:34.898Z,98914.82
2019-01-17T06:48:03.339Z,98913.83
2019-01-17T06:53:19.158Z,98900.52
2019-01-17T06:55:47.522Z,98907.27
2019-01-17T07:01:50.790Z,98920.02
2019-01-17T07:04:19.158Z,98917.23
2019-01-17T07:06:47.528Z,98919.63
2019-01-17T07:09:35.152Z,98914.39
2019-01-17T07:12:03.541Z,98907.33
2019-01-17T07:14:51.163Z,98909.73
2019-01-17T07:19:53.502Z,98917.04
2019-01-17T07:22:21.898Z,98922.23
2019-01-17T07:25:09.513Z,98914.03
2019-01-17T07:27:37.898Z,98918.63
2019-01-17T07:30:46.179Z,98926.58
2019-01-17T07:33:33.740Z,98926.91
2019-01-17T07:36:02.140Z,98936.08
2019-01-17T07:38:49.778Z,98929.49
2019-01-17T07:41:37.396Z,98932.38
2019-01-17T07:44:05.773Z,98934.52
2019-01-17T07:46:53.398Z,98938.08
2019-01-17T07:49:41.022Z,98938.08
2019-01-17T07:52:28.710Z,98937.78
2019-01-17T07:55:16.213Z,98945.34
2019-01-17T07:57:44.626Z,98943.50
2019-01-17T08:00:32.419Z,98944.72
2019-01-17T08:05:34.898Z,98955.53
2019-01-17T08:10:57.815Z,98955.50
2019-01-17T08:13:26.197Z,98957.64
2019-01-17T08:16:13.757Z,98966.14
2019-01-17T08:21:15.985Z,98965.41
2019-01-17T08:24:03.867Z,98975.09
2019-01-17T08:26:51.484Z,98966.98
2019-01-17T08:29:19.864Z,98977.53
2019-01-17T08:31:48.242Z,98982.20
2019-01-17T08:34:35.965Z,98978.40
2019-01-17T08:37:04.610Z,98978.98
2019-01-17T08:39:52.233Z,98976.53
2019-01-17T08:42:39.852Z,98975.75
2019-01-17T08:45:48.142Z,98981.86
2019-01-17T08:48:35.770Z,98977.84
2019-01-17T08:51:04.207Z,98983.12
2019-01-17T08:53:51.829Z,98993.34
2019-01-17T08:56:20.205Z,98988.84
2019-01-17T08:58:48.580Z,98978.38
2019-01-17T09:01:16.954Z,98980.77
2019-01-17T09:04:04.588Z,98971.91
2019-01-17T09:06:52.201Z,98972.96
2019-01-17T09:09:20.583Z,98979.95
2019-01-17T09:12:08.200Z,98990.73
2019-01-17T09:14:55.701Z,98993.52
2019-01-17T09:18:03.982Z,98993.17
2019-01-17T09:21:12.277Z,98988.45
2019-01-17T09:23:59.761Z,98989.77
2019-01-17T09:26:47.254Z,98994.61
2019-01-17T09:29:34.941Z,98987.11
2019-01-17T09:32:22.560Z,98986.27
2019-01-17T09:34:50.931Z,98977.63
2019-01-17T09:37:38.716Z,98987.84
2019-01-17T09:40:47.029Z,98986.23
2019-01-17T09:43:34.512Z,98984.27
2019-01-17T09:46:22.004Z,98980.02
2019-01-17T09:48:50.375Z,98993.48
2019-01-17T09:51:38.096Z,98988.84
2019-01-17T09:54:06.466Z,98979.61
2019-01-17T09:56:54.089Z,98981.61
2019-01-17T09:59:22.469Z,98977.84
2019-01-17T10:04:26.592Z,98979.98
2019-01-17T10:09:29.411Z,98982.03
2019-01-17T10:12:17.029Z,98977.41
2019-01-17T10:15:04.526Z,98980.94
2019-01-17T10:18:12.854Z,98975.96
2019-01-17T10:21:21.095Z,98955.33
2019-01-17T10:24:28.050Z,98962.97
2019-01-17T10:27:35.018Z,98953.12
2019-01-17T10:30:43.311Z,98949.62
2019-01-17T10:33:51.589Z,98948.69
2019-01-17T10:36:59.934Z,98948.41
2019-01-17T10:40:08.227Z,98947.92
2019-01-17T10:43:16.570Z,98940.66
2019-01-17T10:46:23.535Z,98949.70
2019-01-17T10:49:31.818Z,98942.06
2019-01-17T10:52:38.786Z,98939.70
2019-01-17T10:55:47.123Z,98940.44
2019-01-17T10:58:55.403Z,98945.11
2019-01-17T11:02:03.695Z,98943.00
2019-01-17T11:05:10.675Z,98944.78
2019-01-17T11:08:19.027Z,98955.19
2019-01-17T11:11:25.988Z,98935.86
2019-01-17T11:14:34.271Z,98943.72
2019-01-17T11:17:42.563Z,98934.63
2019-01-17T11:20:51.033Z,98926.95
2019-01-17T11:23:59.373Z,98921.33
2019-01-17T11:27:07.664Z,98919.16
2019-01-17T11:30:15.942Z,98913.91
2019-01-17T11:33:22.905Z,98908.83
2019-01-17T11:36:31.204Z,98911.82
2019-01-17T11:39:39.536Z,98906.73
2019-01-17T11:42:47.899Z,98906.66
2019-01-17T11:45:54.842Z,98912.02
2019-01-17T11:49:03.156Z,98901.83
2019-01-17T11:52:11.484Z,98902.00
2019-01-17T11:55:19.731Z,98903.14
2019-01-17T11:58:28.029Z,98900.38
2019-01-17T12:01:36.391Z,98896.82
2019-01-17T12:04:43.358Z,98896.34
2019-01-17T12:07:51.657Z,98887.14
2019-01-17T12:10:20.027Z,98883.91
2019-01-17T12:15:27.098Z,98873.64
2019-01-17T12:18:14.723Z,98875.78
2019-01-17T12:20:43.095Z,98876.94
2019-01-17T12:23:11.486Z,98884.88
2019-01-17T12:28:27.295Z,98880.98
2019-01-17T12:30:55.673Z,98873.43
2019-01-17T12:33:43.300Z,98882.93
2019-01-17T12:36:30.786Z,98884.02
2019-01-17T12:39:18.287Z,98879.17
2019-01-17T12:42:05.783Z,98872.81
2019-01-17T12:44:34.145Z,98872.33
2019-01-17T12:47:02.514Z,98864.02
2019-01-17T12:49:30.893Z,98863.03
2019-01-17T12:51:59.256Z,98876.84
2019-01-17T12:54:27.643Z,98873.87
2019-01-17T12:56:56.010Z,98865.37
2019-01-17T12:59:24.403Z,98852.45
2019-01-17T13:01:52.774Z,98853.00
2019-01-17T13:04:21.156Z,98857.41
2019-01-17T13:06:49.526Z,98850.55
2019-01-17T13:09:17.912Z,98835.22
2019-01-17T13:11:46.320Z,98834.86
2019-01-17T13:14:14.698Z,98835.09
2019-01-17T13:16:43.083Z,98833.05
2019-01-17T13:19:11.471Z,98831.12
2019-01-17T13:21:40.101Z,98834.92
2019-01-17T13:24:08.533Z,98844.29
2019-01-17T13:26:36.917Z,98837.19
2019-01-17T13:29:05.308Z,98836.72
2019-01-17T13:31:33.677Z,98829.91
2019-01-17T13:34:02.083Z,98826.09
2019-01-17T13:36:30.522Z,98826.67
2019-01-17T13:38:58.906Z,98831.05
2019-01-17T13:41:27.287Z,98826.46
2019-01-17T13:43:55.676Z,98825.01
2019-01-17T13:46:24.043Z,98831.91
2019-01-17T13:48:52.429Z,98834.44
2019-01-17T13:51:20.797Z,98840.41
2019-01-17T13:53:49.185Z,98834.80
2019-01-17T13:56:17.550Z,98838.27
2019-01-17T13:58:45.931Z,98833.62
2019-01-17T14:01:14.302Z,98840.61
2019-01-17T14:03:42.681Z,98850.58
2019-01-17T14:06:11.049Z,98875.66
2019-01-17T14:08:39.420Z,98876.51
2019-01-17T14:11:07.793Z,98881.70
2019-01-17T14:13:36.161Z,98883.58
2019-01-17T14:16:04.872Z,98890.33
2019-01-17T14:18:33.235Z,98879.78
2019-01-17T14:21:01.612Z,98887.60
2019-01-17T14:23:29.978Z,98894.22
2019-01-17T14:25:58.356Z,98898.98
2019-01-17T14:28:26.720Z,98898.91
2019-01-17T14:30:55.095Z,98905.25
2019-01-17T14:33:24.281Z,98903.27
2019-01-17T14:35:52.725Z,98908.67
2019-01-17T14:38:21.685Z,98914.56
2019-01-17T14:40:50.049Z,98916.22
2019-01-17T14:43:18.425Z,98929.25
2019-01-17T14:45:46.796Z,98925.38
2019-01-17T14:48:15.157Z,98926.58
2019-01-17T14:50:43.536Z,98928.55
2019-01-17T14:53:11.913Z,98932.72
2019-01-17T14:55:40.294Z,98932.02
2019-01-17T14:58:08.771Z,98937.73
2019-01-17T15:00:37.150Z,98939.08
2019-01-17T15:03:05.517Z,98942.37
2019-01-17T15:05:33.978Z,98943.91
2019-01-17T15:08:02.343Z,98949.56
2019-01-17T15:10:33.791Z,98945.62
2019-01-17T15:13:02.164Z,98954.98
2019-01-17T15:15:30.549Z,98963.45
2019-01-17T15:17:58.919Z,98966.61
2019-01-17T15:20:27.346Z,98965.98
2019-01-17T15:22:55.708Z,98973.95
2019-01-17T15:25:24.084Z,98972.25
2019-01-17T15:27:52.459Z,98978.11
2019-01-17T15:30:26.888Z,98978.78
2019-01-17T15:32:55.328Z,98980.02
2019-01-17T15:35:23.705Z,98985.42
2019-01-17T15:37:52.068Z,98991.95
2019-01-17T15:40:27.349Z,98996.34
2019-01-17T15:42:55.898Z,98991.77
2019-01-17T15:45:24.284Z,98998.30
2019-01-17T15:47:52.648Z,99005.77
2019-01-17T15:50:21.197Z,99005.30
2019-01-17T15:52:49.668Z,99014.17
2019-01-17T15:55:18.311Z,99018.37
2019-01-17T15:57:46.677Z,99018.53
2019-01-17T16:00:20.651Z,99018.25
2019-01-17T16:02:49.010Z,99017.90
2019-01-17T16:05:17.465Z,99027.23
2019-01-17T16:07:45.830Z,99030.02
2019-01-17T16:10:15.745Z,99032.35
2019-01-17T16:12:44.127Z,99034.78
2019-01-17T16:15:15.387Z,99045.70
2019-01-17T16:17:43.764Z,99047.38
2019-01-17T16:20:14.379Z,99054.61
2019-01-17T16:22:42.987Z,99060.10
2019-01-17T16:25:13.202Z,99060.84
2019-01-17T16:27:41.949Z,99063.27
2019-01-17T16:30:22.160Z,99075.09
2019-01-17T16:32:50.529Z,99076.70
2019-01-17T16:35:18.904Z,99069.71
2019-01-17T16:37:47.269Z,99072.21
2019-01-17T16:40:16.007Z,99076.86
2019-01-17T16:42:44.389Z,99077.78
2019-01-17T16:45:15.367Z,99084.36
2019-01-17T16:47:43.740Z,99080.30
2019-01-17T16:50:17.037Z,99076.00
2019-01-17T16:52:45.414Z,99087.28
2019-01-17T16:55:14.615Z,99075.50
2019-01-17T16:57:48.991Z,99089.81
2019-01-17T17:00:24.741Z,99098.05
2019-01-17T17:02:53.113Z,99108.20
2019-01-17T17:05:21.476Z,99104.86
2019-01-17T17:07:49.852Z,99114.86
2019-01-17T17:10:18.459Z,99122.76
2019-01-17T17:12:46.828Z,99120.48
2019-01-17T17:15:15.537Z,99129.94
2019-01-17T17:17:43.985Z,99126.14
2019-01-17T17:20:27.561Z,99132.28
2019-01-17T17:22:55.854Z,99134.66
2019-01-17T17:25:24.222Z,99145.23
2019-01-17T17:27:55.618Z,99141.47
2019-01-17T17:30:27.366Z,99143.49
2019-01-17T17:32:55.741Z,99145.55
2019-01-17T17:35:24.115Z,99157.70
2019-01-17T17:37:52.484Z,99154.33
2019-01-17T17:40:23.898Z,99161.81
2019-01-17T17:42:52.272Z,99155.39
2019-01-17T17:45:20.712Z,99160.36
2019-01-17T17:47:49.088Z,99156.34
2019-01-17T17:50:22.086Z,99167.32
2019-01-17T17:52:50.466Z,99163.34
2019-01-17T17:55:19.598Z,99168.90
2019-01-17T17:57:48.062Z,99174.00
2019-01-17T18:00:23.320Z,99179.81
2019-01-17T18:02:52.164Z,99178.39
2019-01-17T18:05:20.544Z,99186.64
2019-01-17T18:07:48.915Z,99190.91
2019-01-17T18:10:17.823Z,99193.75
2019-01-17T18:12:46.197Z,99191.66
2019-01-17T18:15:19.308Z,99203.45
2019-01-17T18:17:47.954Z,99196.76
2019-01-17T18:20:17.367Z,99204.11
2019-01-17T18:22:45.909Z,99201.44
2019-01-17T18:25:14.416Z,99200.24
2019-01-17T18:27:43.073Z,99217.28
2019-01-17T18:30:23.260Z,99217.28
2019-01-17T18:32:51.874Z,99226.48
2019-01-17T18:35:20.408Z,99226.78
2019-01-17T18:37:48.853Z,99234.23
2019-01-17T18:40:19.230Z,99241.72
2019-01-17T18:42:47.773Z,99246.30
2019-01-17T18:45:26.349Z,99252.31
2019-01-17T18:47:54.805Z,99264.83
2019-01-17T18:50:25.813Z,99253.56
2019-01-17T18:55:48.956Z,99266.58
2019-01-17T18:58:36.675Z,99277.94
2019-01-17T19:03:54.188Z,99294.10
2019-01-17T19:06:22.555Z,99294.55
2019-01-17T19:08:50.933Z,99298.84
2019-01-17T19:11:19.305Z,99314.25
2019-01-17T19:13:47.687Z,99314.80
2019-01-17T19:21:57.021Z,99328.88
2019-01-17T19:27:12.826Z,99331.27
2019-01-17T19:29:41.193Z,99329.28
2019-01-17T19:32:09.584Z,99341.34
2019-01-17T19:34:37.948Z,99342.49
2019-01-17T19:40:01.458Z,99357.73
2019-01-17T19:42:29.844Z,99354.19
2019-01-17T19:44:58.213Z,99362.02
2019-01-17T19:47:26.585Z,99364.35
2019-01-17T19:50:33.549Z,99377.41
2019-01-17T19:53:21.171Z,99378.13
2019-01-17T19:55:49.549Z,99382.17
2019-01-17T19:58:37.167Z,99394.38
2019-01-17T20:01:24.787Z,99396.19
2019-01-17T20:04:12.406Z,99378.80
2019-01-17T20:07:00.028Z,99385.38
2019-01-17T20:09:47.514Z,99391.48
2019-01-17T20:12:15.895Z,99398.08
2019-01-17T20:14:44.260Z,99404.37
2019-01-17T20:17:12.638Z,99412.61
2019-01-17T20:20:00.348Z,99410.52
2019-01-17T20:22:28.725Z,99425.61
2019-01-17T20:25:16.436Z,99429.57
2019-01-17T20:27:44.829Z,99429.69
2019-01-17T20:30:53.115Z,99437.18
2019-01-17T20:33:21.507Z,99436.91
2019-01-17T20:36:09.221Z,99439.45
2019-01-17T20:38:37.596Z,99447.06
2019-01-17T20:41:25.080Z,99453.70
2019-01-17T20:43:53.459Z,99455.38
2019-01-17T20:47:01.731Z,99469.05
2019-01-17T20:52:03.647Z,99477.22
2019-01-17T20:54:51.270Z,99480.09
2019-01-17T20:57:39.069Z,99485.75
2019-01-17T21:00:47.409Z,99491.97
2019-01-17T21:03:55.699Z,99503.50
2019-01-17T21:06:43.312Z,99517.44
2019-01-17T21:14:24.785Z,99533.38
2019-01-17T21:16:53.153Z,99536.73
2019-01-17T21:19:40.872Z,99535.78
2019-01-17T21:25:15.925Z,99543.27
2019-01-17T21:27:44.296Z,99541.23
2019-01-17T21:30:52.577Z,99552.94
2019-01-17T21:33:20.952Z,99551.97
2019-01-17T21:36:27.711Z,99562.88
2019-01-17T21:38:56.088Z,99567.09
2019-01-17T21:41:24.470Z,99572.76
2019-01-17T21:43:52.913Z,99584.97
2019-01-17T21:46:21.277Z,99591.58
2019-01-17T21:48:49.651Z,99611.42
2019-01-17T21:57:18.861Z,99641.00
2019-01-17T22:00:06.508Z,99642.41
2019-01-17T22:02:54.030Z,99663.88
2019-01-17T22:08:49.752Z,99681.67
2019-01-17T22:11:18.130Z,99702.61
2019-01-17T22:14:05.636Z,99698.72
2019-01-17T22:16:34.021Z,99711.20
2019-01-17T22:19:21.673Z,99726.11
2019-01-17T22:21:50.082Z,99733.11
2019-01-17T22:24:18.476Z,99748.05
2019-01-17T22:26:46.848Z,99755.42
2019-01-17T22:29:15.219Z,99763.91
2019-01-17T22:31:43.586Z,99770.33
2019-01-17T22:34:11.960Z,99770.79
2019-01-17T22:36:59.445Z,99778.09
2019-01-17T22:39:27.819Z,99789.13
2019-01-17T22:42:15.536Z,99791.33
2019-01-17T22:47:17.745Z,99808.32
2019-01-17T22:50:05.241Z,99820.55
2019-01-17T22:52:33.609Z,99833.92
2019-01-17T22:55:24.199Z,99839.95
2019-01-17T22:58:11.816Z,99852.46
2019-01-17T23:01:20.093Z,99855.10
2019-01-17T23:04:07.711Z,99855.02
2019-01-17T23:06:36.082Z,99874.77
2019-01-17T23:09:44.364Z,99879.28
2019-01-17T23:12:12.734Z,99888.13
2019-01-17T23:14:41.114Z,99898.45
2019-01-17T23:17:28.820Z,99903.13
2019-01-17T23:19:57.200Z,99905.48
2019-01-17T23:23:05.484Z,99911.77
2019-01-17T23:25:33.855Z,99915.06
2019-01-17T23:28:21.471Z,99928.06
2019-01-17T23:30:49.845Z,99935.71
2019-01-17T23:33:18.208Z,99934.55
2019-01-17T23:36:05.928Z,99943.64
2019-01-17T23:39:14.299Z,99949.05
2019-01-17T23:41:42.670Z,99952.34
2019-01-17T23:44:30.393Z,99959.73
2019-01-17T23:47:18.009Z,99968.95
2019-01-17T23:50:05.637Z,99981.04
2019-01-17T23:52:33.999Z,99979.64
2019-01-17T23:55:02.373Z,99989.75
2019-01-17T23:57:49.988Z,99996.84
